Dundee, Michigan
Current Conditions -  °F | °C
As of 10:12 AM on Saturday 20 Dec 2014 (Local Time) from KTTF Reporting Station
Overcast Overcast  
Wind Chill: 28°   Ceiling: 2500
Heat Index: 28°   Visibility: 10mi
Dew Point: 23°   Wind: 0mph
Humidity: 80%   Direction: NA
Pressure: 30.3"   Gusts: NA
Location:  41.96°N, 83.66°W
Report Text: KTTF 201512Z AUTO 00000KT 10SM OVC025 M02/M05 A3030 RMK AO2
Loading
Personal Weather Stations






























Interactive Weather Map New forecast layout! Learn more

10-Day Weather Forecast

Advertisements
Track Severe Weather on mobile